createdAt,value
2022-11-07T00:00:23.141Z,4.67
2022-11-07T00:01:35.132Z,4.69
2022-11-07T00:02:38.877Z,4.72
2022-11-07T00:03:41.982Z,4.71
2022-11-07T00:04:45.051Z,4.71
2022-11-07T00:05:48.100Z,4.71
2022-11-07T00:06:51.174Z,4.69
2022-11-07T00:07:54.467Z,4.66
2022-11-07T00:09:01.714Z,4.66
2022-11-07T00:10:05.590Z,4.65
2022-11-07T00:11:08.663Z,4.66
2022-11-07T00:12:11.829Z,4.68
2022-11-07T00:13:15.097Z,4.68
2022-11-07T00:14:18.841Z,4.68
2022-11-07T00:15:21.957Z,4.68
2022-11-07T00:16:26.787Z,4.71
2022-11-07T00:17:29.877Z,4.72
2022-11-07T00:18:33.010Z,4.70
2022-11-07T00:19:36.076Z,4.74
2022-11-07T00:20:39.052Z,4.73
2022-11-07T00:21:44.233Z,4.72
2022-11-07T00:22:47.282Z,4.72
2022-11-07T00:23:50.383Z,4.73
2022-11-07T00:24:53.921Z,4.73
2022-11-07T00:26:06.827Z,4.76
2022-11-07T00:27:10.571Z,4.77
2022-11-07T00:28:13.686Z,4.79
2022-11-07T00:29:18.831Z,4.78
2022-11-07T00:31:22.294Z,4.81
2022-11-07T00:32:25.401Z,4.81
2022-11-07T00:33:29.833Z,4.85
2022-11-07T00:34:35.328Z,4.83
2022-11-07T00:35:42.553Z,4.82
2022-11-07T00:36:45.674Z,4.82
2022-11-07T00:37:48.920Z,4.83
2022-11-07T00:38:52.293Z,4.84
2022-11-07T00:39:55.251Z,4.86
2022-11-07T00:40:59.131Z,4.89
2022-11-07T00:42:02.370Z,4.89
2022-11-07T00:43:06.850Z,4.88
2022-11-07T00:44:12.421Z,4.90
2022-11-07T00:45:15.779Z,4.85
2022-11-07T00:46:19.799Z,4.90
2022-11-07T00:47:22.877Z,4.88
2022-11-07T00:48:26.021Z,4.89
2022-11-07T00:49:29.121Z,4.90
2022-11-07T00:50:32.292Z,4.88
2022-11-07T00:51:35.638Z,4.85
2022-11-07T00:52:38.704Z,4.81
2022-11-07T00:53:42.188Z,4.77
2022-11-07T00:54:45.191Z,4.76
2022-11-07T00:55:48.277Z,4.76
2022-11-07T00:56:51.388Z,4.73
2022-11-07T00:57:55.678Z,4.71
2022-11-07T00:58:59.593Z,4.73
2022-11-07T01:00:02.673Z,4.73
2022-11-07T01:01:16.530Z,4.77
2022-11-07T01:02:19.734Z,4.78
2022-11-07T01:03:41.699Z,4.75
2022-11-07T01:05:03.314Z,4.77
2022-11-07T01:06:07.011Z,4.77
2022-11-07T01:07:10.230Z,4.80
2022-11-07T01:08:13.329Z,4.82
2022-11-07T01:09:18.466Z,4.82
2022-11-07T01:10:21.453Z,4.85
2022-11-07T01:11:26.076Z,4.86
2022-11-07T01:12:31.692Z,4.89
2022-11-07T01:13:35.700Z,4.93
2022-11-07T01:14:38.804Z,4.96
2022-11-07T01:15:41.983Z,5.00
2022-11-07T01:16:45.367Z,5.04
2022-11-07T01:17:48.535Z,5.08
2022-11-07T01:18:51.958Z,5.11
2022-11-07T01:19:55.253Z,5.17
2022-11-07T01:20:58.558Z,5.22
2022-11-07T01:22:01.779Z,5.26
2022-11-07T01:23:04.872Z,5.28
2022-11-07T01:24:09.355Z,5.30
2022-11-07T01:25:12.422Z,5.34
2022-11-07T01:26:16.148Z,5.40
2022-11-07T01:27:19.326Z,5.40
2022-11-07T01:28:22.542Z,5.44
2022-11-07T01:29:26.549Z,5.47
2022-11-07T01:30:29.669Z,5.48
2022-11-07T01:31:33.584Z,5.50
2022-11-07T01:32:36.853Z,5.53
2022-11-07T01:33:40.633Z,5.55
2022-11-07T01:34:43.923Z,5.56
2022-11-07T01:35:47.911Z,5.58
2022-11-07T01:36:51.119Z,5.60
2022-11-07T01:37:54.314Z,5.61
2022-11-07T01:38:57.614Z,5.62
2022-11-07T01:40:00.813Z,5.62
2022-11-07T01:41:21.891Z,5.64
2022-11-07T01:42:25.996Z,5.65
2022-11-07T01:43:42.335Z,5.68
2022-11-07T01:44:49.491Z,5.69
2022-11-07T01:45:52.789Z,5.69
2022-11-07T01:46:57.551Z,5.71
2022-11-07T01:48:02.629Z,5.72
2022-11-07T01:49:14.786Z,5.73
2022-11-07T01:50:18.426Z,5.73
2022-11-07T01:51:22.943Z,5.75
2022-11-07T01:52:31.351Z,5.75
2022-11-07T01:53:35.695Z,5.75
2022-11-07T01:54:46.432Z,5.77
2022-11-07T01:55:49.480Z,5.79
2022-11-07T01:56:54.414Z,5.80
2022-11-07T01:58:02.174Z,5.80
2022-11-07T01:59:09.608Z,5.81
2022-11-07T02:00:15.801Z,5.81
2022-11-07T02:01:19.088Z,5.81
2022-11-07T02:02:24.251Z,5.77
2022-11-07T02:03:27.827Z,5.76
2022-11-07T02:04:31.632Z,5.78
2022-11-07T02:05:38.040Z,5.77
2022-11-07T02:06:48.402Z,5.78
2022-11-07T02:07:52.108Z,5.75
2022-11-07T02:08:55.543Z,5.73
2022-11-07T02:09:59.379Z,5.73
2022-11-07T02:11:04.034Z,5.70
2022-11-07T02:12:07.328Z,5.68
2022-11-07T02:13:13.914Z,5.66
2022-11-07T02:14:17.742Z,5.64
2022-11-07T02:15:20.829Z,5.62
2022-11-07T02:16:24.999Z,5.61
2022-11-07T02:17:28.510Z,5.60
2022-11-07T02:18:34.663Z,5.60
2022-11-07T02:19:42.593Z,5.57
2022-11-07T02:20:47.918Z,5.58
2022-11-07T02:21:56.956Z,5.57
2022-11-07T02:23:01.703Z,5.58
2022-11-07T02:24:07.757Z,5.58
2022-11-07T02:25:12.807Z,5.60
2022-11-07T02:26:15.912Z,5.61
2022-11-07T02:27:20.344Z,5.64
2022-11-07T02:28:27.259Z,5.64
2022-11-07T02:29:30.805Z,5.65
2022-11-07T02:30:36.193Z,5.67
2022-11-07T02:31:39.598Z,5.69
2022-11-07T02:32:42.749Z,5.70
2022-11-07T02:33:46.032Z,5.71
2022-11-07T02:35:02.758Z,5.73
2022-11-07T02:36:05.966Z,5.73
2022-11-07T02:37:23.800Z,5.75
2022-11-07T02:38:31.134Z,5.79
2022-11-07T02:39:34.414Z,5.81
2022-11-07T02:40:38.184Z,5.81
2022-11-07T02:41:41.529Z,5.83
2022-11-07T02:42:47.118Z,5.82
2022-11-07T02:43:53.287Z,5.85
2022-11-07T02:44:56.315Z,5.86
2022-11-07T02:46:00.539Z,5.87
2022-11-07T02:47:05.785Z,5.89
2022-11-07T02:48:09.344Z,5.89
2022-11-07T02:49:12.760Z,5.89
2022-11-07T02:50:26.826Z,5.88
2022-11-07T02:51:30.190Z,5.88
2022-11-07T02:52:33.285Z,5.91
2022-11-07T02:53:36.450Z,5.91
2022-11-07T02:54:39.548Z,5.92
2022-11-07T02:55:42.661Z,5.93
2022-11-07T02:56:45.719Z,5.92
2022-11-07T02:57:48.974Z,5.92
2022-11-07T02:58:55.228Z,5.94
2022-11-07T02:59:58.372Z,5.94
2022-11-07T03:01:07.160Z,5.95
2022-11-07T03:02:10.353Z,5.97
2022-11-07T03:03:14.001Z,5.97
2022-11-07T03:04:17.271Z,5.97
2022-11-07T03:05:20.964Z,5.99
2022-11-07T03:06:25.580Z,5.99
2022-11-07T03:07:28.743Z,6.00
2022-11-07T03:08:31.937Z,6.00
2022-11-07T03:09:37.455Z,5.99
2022-11-07T03:10:40.873Z,5.97
2022-11-07T03:11:44.263Z,5.95
2022-11-07T03:12:47.316Z,5.94
2022-11-07T03:13:50.747Z,5.92
2022-11-07T03:14:55.022Z,5.92
2022-11-07T03:15:58.551Z,5.98
2022-11-07T03:17:01.824Z,5.97
2022-11-07T03:18:05.083Z,5.95
2022-11-07T03:19:08.272Z,5.95
2022-11-07T03:20:11.423Z,5.95
2022-11-07T03:21:14.827Z,5.95
2022-11-07T03:22:17.970Z,5.94
2022-11-07T03:23:21.108Z,5.96
2022-11-07T03:24:25.459Z,5.96
2022-11-07T03:25:28.544Z,5.95
2022-11-07T03:26:31.660Z,5.95
2022-11-07T03:27:34.949Z,5.96
2022-11-07T03:28:37.951Z,5.95
2022-11-07T03:29:41.168Z,5.97
2022-11-07T03:30:44.304Z,5.97
2022-11-07T03:31:49.880Z,5.99
2022-11-07T03:32:55.907Z,5.98
2022-11-07T03:33:58.978Z,5.96
2022-11-07T03:35:02.252Z,6.02
2022-11-07T03:36:05.566Z,6.00
2022-11-07T03:37:08.662Z,5.99
2022-11-07T03:38:14.112Z,5.99
2022-11-07T03:39:19.509Z,6.00
2022-11-07T03:40:26.267Z,6.00
2022-11-07T03:41:29.513Z,5.96
2022-11-07T03:42:38.013Z,5.92
2022-11-07T03:43:50.141Z,5.89
2022-11-07T03:44:53.258Z,5.86
2022-11-07T03:45:58.170Z,5.84
2022-11-07T03:47:01.288Z,5.82
2022-11-07T03:48:04.573Z,5.81
2022-11-07T03:49:07.803Z,5.80
2022-11-07T03:50:13.388Z,5.76
2022-11-07T03:51:16.843Z,5.75
2022-11-07T03:52:19.973Z,5.72
2022-11-07T03:53:25.729Z,5.77
2022-11-07T03:54:29.773Z,5.68
2022-11-07T03:55:33.198Z,5.70
2022-11-07T03:56:36.405Z,5.68
2022-11-07T03:57:39.522Z,5.65
2022-11-07T03:58:43.492Z,5.63
2022-11-07T03:59:47.140Z,5.60
2022-11-07T04:00:50.337Z,5.64
2022-11-07T04:01:53.737Z,5.63
2022-11-07T04:02:57.247Z,5.63
2022-11-07T04:04:00.504Z,5.63
2022-11-07T04:05:03.633Z,5.66
2022-11-07T04:06:06.963Z,5.64
2022-11-07T04:07:11.133Z,5.65
2022-11-07T04:08:14.207Z,5.64
2022-11-07T04:09:17.459Z,5.63
2022-11-07T04:10:20.539Z,5.64
2022-11-07T04:11:42.347Z,5.66
2022-11-07T04:13:04.467Z,5.64
2022-11-07T04:14:26.614Z,5.63
2022-11-07T04:15:48.553Z,5.63
2022-11-07T04:17:12.685Z,5.62
2022-11-07T04:18:15.914Z,5.59
2022-11-07T04:19:19.028Z,5.59
2022-11-07T04:20:22.774Z,5.57
2022-11-07T04:21:26.109Z,5.56
2022-11-07T04:22:29.259Z,5.55
2022-11-07T04:23:32.582Z,5.54
2022-11-07T04:24:35.723Z,5.52
2022-11-07T04:25:57.536Z,5.54
2022-11-07T04:27:19.985Z,5.55
2022-11-07T04:28:23.074Z,5.53
2022-11-07T04:29:26.165Z,5.55
2022-11-07T04:30:30.184Z,5.54
2022-11-07T04:31:33.437Z,5.54
2022-11-07T04:32:36.503Z,5.56
2022-11-07T04:33:39.708Z,5.55
2022-11-07T04:34:42.859Z,5.54
2022-11-07T04:35:46.246Z,5.52
2022-11-07T04:36:49.383Z,5.51
2022-11-07T04:37:53.066Z,5.49
2022-11-07T04:38:56.146Z,5.47
2022-11-07T04:39:59.342Z,5.45
2022-11-07T04:41:04.365Z,5.43
2022-11-07T04:42:09.324Z,5.41
2022-11-07T04:43:12.683Z,5.43
2022-11-07T04:44:16.107Z,5.41
2022-11-07T04:45:19.180Z,5.40
2022-11-07T04:46:23.738Z,5.40
2022-11-07T04:47:26.978Z,5.42
2022-11-07T04:48:29.973Z,5.42
2022-11-07T04:49:33.026Z,5.42
2022-11-07T04:50:36.082Z,5.45
2022-11-07T04:51:41.888Z,5.48
2022-11-07T04:52:45.583Z,5.49
2022-11-07T04:53:48.673Z,5.52
2022-11-07T04:54:51.750Z,5.54
2022-11-07T04:55:54.913Z,5.52
2022-11-07T04:56:58.060Z,5.56
2022-11-07T04:58:01.112Z,5.57
2022-11-07T04:59:06.868Z,5.58
2022-11-07T05:00:10.093Z,5.58
2022-11-07T05:01:13.481Z,5.58
2022-11-07T05:02:16.715Z,5.59
2022-11-07T05:03:20.129Z,5.59
2022-11-07T05:04:24.510Z,5.61
2022-11-07T05:05:28.620Z,5.64
2022-11-07T05:06:34.638Z,5.66
2022-11-07T05:07:37.803Z,5.70
2022-11-07T05:08:40.854Z,5.74
2022-11-07T05:09:43.978Z,5.77
2022-11-07T05:10:49.297Z,5.82
2022-11-07T05:11:53.336Z,5.88
2022-11-07T05:12:56.849Z,5.95
2022-11-07T05:14:00.015Z,5.99
2022-11-07T05:15:03.157Z,6.00
2022-11-07T05:16:06.460Z,6.06
2022-11-07T05:17:12.863Z,6.08
2022-11-07T05:18:15.908Z,6.17
2022-11-07T05:19:20.679Z,6.19
2022-11-07T05:20:38.145Z,6.23
2022-11-07T05:21:41.559Z,6.31
2022-11-07T05:23:03.502Z,6.35
2022-11-07T05:24:06.735Z,6.38
2022-11-07T05:25:10.341Z,6.39
2022-11-07T05:26:13.372Z,6.40
2022-11-07T05:27:18.265Z,6.44
2022-11-07T05:28:31.167Z,6.46
2022-11-07T05:29:38.153Z,6.48
2022-11-07T05:30:41.866Z,6.51
2022-11-07T05:31:45.374Z,6.55
2022-11-07T05:32:48.567Z,6.56
2022-11-07T05:33:51.958Z,6.60
2022-11-07T05:34:55.595Z,6.61
2022-11-07T05:36:08.432Z,6.67
2022-11-07T05:37:12.465Z,6.58
2022-11-07T05:38:15.648Z,6.66
2022-11-07T05:39:19.277Z,6.66
2022-11-07T05:40:22.579Z,6.66
2022-11-07T05:41:25.869Z,6.67
2022-11-07T05:42:28.974Z,6.69
2022-11-07T05:43:32.183Z,6.73
2022-11-07T05:44:35.482Z,6.73
2022-11-07T05:45:39.305Z,6.72
2022-11-07T05:46:44.853Z,6.73
2022-11-07T05:47:47.864Z,6.75
2022-11-07T05:48:52.689Z,6.75
2022-11-07T05:49:57.539Z,6.73
2022-11-07T05:51:00.949Z,6.70
2022-11-07T05:52:04.027Z,6.72
2022-11-07T05:53:07.281Z,6.75
2022-11-07T05:54:10.693Z,6.76
2022-11-07T05:55:13.710Z,6.77
2022-11-07T05:56:17.074Z,6.75
2022-11-07T05:57:20.157Z,6.74
2022-11-07T05:58:23.293Z,6.71
2022-11-07T05:59:26.679Z,6.71
2022-11-07T06:00:29.910Z,6.72
2022-11-07T06:01:33.237Z,6.74
2022-11-07T06:02:36.571Z,6.76
2022-11-07T06:03:39.740Z,6.76
2022-11-07T06:04:42.924Z,6.75
2022-11-07T06:05:46.427Z,6.72
2022-11-07T06:06:49.552Z,6.70
2022-11-07T06:07:52.813Z,6.70
2022-11-07T06:08:55.839Z,6.71
2022-11-07T06:09:58.961Z,6.73
2022-11-07T06:11:05.120Z,6.72
2022-11-07T06:12:08.553Z,6.73
2022-11-07T06:13:14.244Z,6.73
2022-11-07T06:14:17.964Z,6.75
2022-11-07T06:15:21.177Z,6.76
2022-11-07T06:16:24.585Z,6.77
2022-11-07T06:17:27.838Z,6.77
2022-11-07T06:18:31.033Z,6.77
2022-11-07T06:19:34.159Z,6.77
2022-11-07T06:20:39.712Z,6.77
2022-11-07T06:21:42.850Z,6.79
2022-11-07T06:22:49.224Z,6.78
2022-11-07T06:23:52.614Z,6.76
2022-11-07T06:24:56.517Z,6.80
2022-11-07T06:25:59.703Z,6.81
2022-11-07T06:27:02.967Z,6.80
2022-11-07T06:28:10.295Z,6.80
2022-11-07T06:29:13.535Z,6.81
2022-11-07T06:30:16.635Z,6.80
2022-11-07T06:31:20.023Z,6.84
2022-11-07T06:32:23.197Z,6.83
2022-11-07T06:33:26.807Z,6.85
2022-11-07T06:34:29.910Z,6.87
2022-11-07T06:35:33.808Z,6.89
2022-11-07T06:36:37.144Z,6.91
2022-11-07T06:37:40.321Z,6.92
2022-11-07T06:38:45.828Z,6.96
2022-11-07T06:39:48.928Z,6.99
2022-11-07T06:40:52.073Z,7.02
2022-11-07T06:41:55.404Z,7.05
2022-11-07T06:43:07.636Z,7.08
2022-11-07T06:44:10.791Z,7.11
2022-11-07T06:45:13.945Z,7.12
2022-11-07T06:46:19.402Z,7.13
2022-11-07T06:47:22.539Z,7.14
2022-11-07T06:48:25.688Z,7.18
2022-11-07T06:49:28.931Z,7.18
2022-11-07T06:50:32.636Z,7.20
2022-11-07T06:51:35.980Z,7.20
2022-11-07T06:52:39.428Z,7.20
2022-11-07T06:53:42.480Z,7.21
2022-11-07T06:54:45.608Z,7.26
2022-11-07T06:55:51.012Z,7.26
2022-11-07T06:56:54.308Z,7.27
2022-11-07T06:57:58.772Z,7.29
2022-11-07T06:59:06.329Z,7.31
2022-11-07T07:00:09.839Z,7.37
2022-11-07T07:01:16.672Z,7.36
2022-11-07T07:02:37.194Z,7.36
2022-11-07T07:03:43.588Z,7.37
2022-11-07T07:04:49.274Z,7.37
2022-11-07T07:05:53.889Z,7.38
2022-11-07T07:06:59.904Z,7.39
2022-11-07T07:08:03.869Z,7.38
2022-11-07T07:09:07.788Z,7.37
2022-11-07T07:10:10.878Z,7.38
2022-11-07T07:11:16.516Z,7.38
2022-11-07T07:12:19.673Z,7.39
2022-11-07T07:13:22.832Z,7.38
2022-11-07T07:14:25.928Z,7.39
2022-11-07T07:15:29.135Z,7.41
2022-11-07T07:16:32.397Z,7.45
2022-11-07T07:17:35.613Z,7.40
2022-11-07T07:18:38.852Z,7.39
2022-11-07T07:19:42.039Z,7.45
2022-11-07T07:20:45.486Z,7.47
2022-11-07T07:21:48.561Z,7.48
2022-11-07T07:22:57.869Z,7.48
2022-11-07T07:24:06.148Z,7.46
2022-11-07T07:25:09.815Z,7.45
2022-11-07T07:26:14.175Z,7.46
2022-11-07T07:27:17.576Z,7.48
2022-11-07T07:28:23.057Z,7.51
2022-11-07T07:29:26.170Z,7.53
2022-11-07T07:30:29.292Z,7.52
2022-11-07T07:31:32.885Z,7.53
2022-11-07T07:32:36.188Z,7.54
2022-11-07T07:33:39.813Z,7.58
2022-11-07T07:34:43.099Z,7.59
2022-11-07T07:35:46.179Z,7.62
2022-11-07T07:36:52.472Z,7.59
2022-11-07T07:37:55.541Z,7.61
2022-11-07T07:38:59.029Z,7.64
2022-11-07T07:40:02.202Z,7.64
2022-11-07T07:41:06.277Z,7.66
2022-11-07T07:42:10.384Z,7.70
2022-11-07T07:43:14.241Z,7.75
2022-11-07T07:44:17.666Z,7.80
2022-11-07T07:45:20.906Z,7.85
2022-11-07T07:46:24.019Z,7.91
2022-11-07T07:47:27.217Z,7.95
2022-11-07T07:48:30.328Z,7.98
2022-11-07T07:49:33.553Z,8.03
2022-11-07T07:50:36.710Z,8.10
2022-11-07T07:51:39.940Z,8.15
2022-11-07T07:52:43.114Z,8.17
2022-11-07T07:53:46.207Z,8.19
2022-11-07T07:54:49.373Z,8.24
2022-11-07T07:55:56.954Z,8.27
2022-11-07T07:57:01.610Z,8.33
2022-11-07T07:58:04.954Z,8.37
2022-11-07T07:59:08.215Z,8.42
2022-11-07T08:00:12.307Z,8.44
2022-11-07T08:01:15.870Z,8.49
2022-11-07T08:02:19.114Z,8.54
2022-11-07T08:03:22.178Z,8.57
2022-11-07T08:04:25.512Z,8.62
2022-11-07T08:05:30.049Z,8.69
2022-11-07T08:06:35.376Z,8.79
2022-11-07T08:07:44.878Z,8.97
2022-11-07T08:08:47.969Z,9.23
2022-11-07T08:09:51.016Z,9.40
2022-11-07T08:10:57.106Z,9.61
2022-11-07T08:12:00.163Z,9.85
2022-11-07T08:13:03.239Z,10.04
2022-11-07T08:14:06.428Z,10.31
2022-11-07T08:15:10.008Z,10.64
2022-11-07T08:16:13.380Z,10.99
2022-11-07T08:17:16.493Z,11.29
2022-11-07T08:18:21.966Z,11.63
2022-11-07T08:19:25.092Z,11.91
2022-11-07T08:20:28.174Z,12.14
2022-11-07T08:21:31.503Z,12.41
2022-11-07T08:22:34.665Z,12.67
2022-11-07T08:23:38.085Z,13.03
2022-11-07T08:24:43.374Z,13.19
2022-11-07T08:25:53.907Z,13.13
2022-11-07T08:26:57.186Z,13.07
2022-11-07T08:28:00.717Z,13.07
2022-11-07T08:29:04.309Z,13.07
2022-11-07T08:30:08.199Z,13.21
2022-11-07T08:31:12.402Z,13.44
2022-11-07T08:32:15.752Z,13.45
2022-11-07T08:33:19.199Z,13.58
2022-11-07T08:34:22.736Z,13.80
2022-11-07T08:35:26.057Z,13.63
2022-11-07T08:36:29.318Z,13.45
2022-11-07T08:37:32.489Z,13.28
2022-11-07T08:38:37.959Z,13.06
2022-11-07T08:39:41.955Z,12.70
2022-11-07T08:40:45.168Z,12.57
2022-11-07T08:41:48.204Z,12.42
2022-11-07T08:42:51.376Z,12.14
2022-11-07T08:43:55.781Z,11.82
2022-11-07T08:44:58.809Z,11.56
2022-11-07T08:46:01.965Z,11.39
2022-11-07T08:47:08.438Z,11.36
2022-11-07T08:48:12.147Z,11.26
2022-11-07T08:49:15.526Z,11.10
2022-11-07T08:50:18.715Z,10.96
2022-11-07T08:51:21.870Z,10.87
2022-11-07T08:52:25.014Z,10.80
2022-11-07T08:53:28.164Z,10.71
2022-11-07T08:54:31.250Z,10.63
2022-11-07T08:55:34.562Z,10.58
2022-11-07T08:56:37.616Z,10.55
2022-11-07T08:57:40.729Z,10.50
2022-11-07T08:58:44.781Z,10.49
2022-11-07T08:59:47.861Z,10.49
2022-11-07T09:00:50.981Z,10.51
2022-11-07T09:02:38.921Z,10.45
2022-11-07T09:04:44.435Z,10.44
2022-11-07T09:05:47.604Z,10.50
2022-11-07T09:06:50.870Z,10.55
2022-11-07T09:07:54.154Z,10.54
2022-11-07T09:08:57.227Z,10.56
2022-11-07T09:10:00.371Z,10.61
2022-11-07T09:11:04.417Z,10.60
2022-11-07T09:12:07.779Z,10.65
2022-11-07T09:13:11.183Z,10.77
2022-11-07T09:14:14.295Z,10.85
2022-11-07T09:15:18.165Z,10.88
2022-11-07T09:16:22.056Z,10.94
2022-11-07T09:17:25.409Z,10.97
2022-11-07T09:18:28.900Z,10.98
2022-11-07T09:19:32.046Z,11.00
2022-11-07T09:20:35.294Z,11.04
2022-11-07T09:21:38.694Z,11.09
2022-11-07T09:22:42.315Z,11.15
2022-11-07T09:23:45.417Z,11.22
2022-11-07T09:24:48.532Z,11.36
2022-11-07T09:25:51.648Z,11.42
2022-11-07T09:26:54.801Z,11.48
2022-11-07T09:28:01.691Z,11.60
2022-11-07T09:29:04.824Z,11.71
2022-11-07T09:30:08.392Z,11.89
2022-11-07T09:31:11.493Z,11.97
2022-11-07T09:32:42.640Z,11.97
2022-11-07T09:33:38.043Z,11.98
2022-11-07T09:34:41.439Z,12.02
2022-11-07T09:35:44.516Z,12.06
2022-11-07T09:36:47.544Z,12.08
2022-11-07T09:37:51.071Z,12.09
2022-11-07T09:38:56.471Z,12.01
2022-11-07T09:40:00.323Z,11.98
2022-11-07T09:41:03.536Z,11.89
2022-11-07T09:42:15.489Z,11.83
2022-11-07T09:43:24.807Z,11.80
2022-11-07T09:44:48.560Z,11.80
2022-11-07T09:46:24.321Z,11.83
2022-11-07T09:47:44.341Z,11.88
2022-11-07T09:49:01.613Z,11.86
2022-11-07T09:50:11.691Z,11.85
2022-11-07T09:51:38.954Z,11.88
2022-11-07T09:52:47.709Z,11.86
2022-11-07T09:53:55.463Z,11.80
2022-11-07T09:55:03.930Z,11.72
2022-11-07T09:56:11.200Z,11.66
2022-11-07T09:57:17.019Z,11.62
2022-11-07T09:58:22.106Z,11.69
2022-11-07T09:59:28.119Z,11.78
2022-11-07T10:00:32.109Z,11.89
2022-11-07T10:01:36.128Z,11.99
2022-11-07T10:02:43.122Z,12.03
2022-11-07T10:04:18.144Z,12.23
2022-11-07T10:05:13.540Z,12.54
2022-11-07T10:06:25.679Z,12.61
2022-11-07T10:07:28.736Z,12.73
2022-11-07T10:08:37.844Z,12.77
2022-11-07T10:09:47.517Z,12.81
2022-11-07T10:11:17.188Z,12.89
2022-11-07T10:12:39.213Z,13.19
2022-11-07T10:13:56.185Z,13.40
2022-11-07T10:14:59.425Z,13.56
2022-11-07T10:16:17.840Z,13.69
2022-11-07T10:17:21.665Z,13.98
2022-11-07T10:18:27.927Z,14.16
2022-11-07T10:19:46.769Z,14.31
2022-11-07T10:21:31.268Z,14.55
2022-11-07T10:22:34.059Z,14.82
2022-11-07T10:23:58.435Z,15.12
2022-11-07T10:25:01.634Z,15.37
2022-11-07T10:26:11.983Z,15.56
2022-11-07T10:27:15.178Z,15.87
2022-11-07T10:28:19.365Z,16.16
2022-11-07T10:29:24.964Z,16.34
2022-11-07T10:30:29.029Z,16.59
2022-11-07T10:31:34.291Z,16.82
2022-11-07T10:32:54.652Z,17.01
2022-11-07T10:34:02.344Z,17.23
2022-11-07T10:35:16.356Z,17.19
2022-11-07T10:36:22.846Z,17.13
2022-11-07T10:37:28.316Z,17.16
2022-11-07T10:38:34.526Z,17.21
2022-11-07T10:39:41.549Z,17.28
2022-11-07T10:40:46.232Z,17.36
2022-11-07T10:41:57.868Z,17.38
2022-11-07T10:43:03.210Z,17.15
2022-11-07T10:44:10.795Z,17.08
2022-11-07T10:45:14.738Z,17.01
2022-11-07T10:46:20.429Z,16.93
2022-11-07T10:47:25.217Z,16.89
2022-11-07T10:48:29.728Z,16.83
2022-11-07T10:49:32.994Z,16.81
2022-11-07T10:50:36.100Z,16.76
2022-11-07T10:51:40.735Z,16.66
2022-11-07T10:52:51.751Z,16.78
2022-11-07T10:53:54.948Z,17.08
2022-11-07T10:55:17.077Z,17.36
2022-11-07T10:56:20.864Z,17.59
2022-11-07T10:57:23.943Z,17.78
2022-11-07T10:58:28.680Z,17.70
2022-11-07T10:59:36.471Z,17.48
2022-11-07T11:00:41.801Z,17.37
2022-11-07T11:01:50.260Z,17.41
2022-11-07T11:02:54.199Z,17.15
2022-11-07T11:03:57.634Z,17.16
2022-11-07T11:05:05.174Z,17.22
2022-11-07T11:06:11.239Z,17.28
2022-11-07T11:07:14.294Z,17.48
2022-11-07T11:08:21.317Z,17.66
2022-11-07T11:09:29.049Z,17.75
2022-11-07T11:10:37.356Z,17.66
2022-11-07T11:11:40.580Z,17.69
2022-11-07T11:12:46.245Z,17.72
2022-11-07T11:13:49.612Z,17.68
2022-11-07T11:15:03.313Z,17.73
2022-11-07T11:16:30.668Z,17.84
2022-11-07T11:17:35.149Z,17.78
2022-11-07T11:18:38.313Z,17.85
2022-11-07T11:19:48.526Z,17.86
2022-11-07T11:20:56.668Z,17.90
2022-11-07T11:22:00.039Z,18.10
2022-11-07T11:23:05.729Z,18.33
2022-11-07T11:24:13.370Z,18.56
2022-11-07T11:25:21.868Z,18.78
2022-11-07T11:26:29.867Z,18.96
2022-11-07T11:27:34.439Z,19.04
2022-11-07T11:28:41.404Z,19.10
2022-11-07T11:29:44.498Z,19.16
2022-11-07T11:30:51.164Z,19.24
2022-11-07T11:31:56.259Z,19.30
2022-11-07T11:33:03.802Z,19.43
2022-11-07T11:34:13.853Z,19.52
2022-11-07T11:35:23.174Z,19.57
2022-11-07T11:36:29.573Z,19.63
2022-11-07T11:37:34.965Z,19.66
2022-11-07T11:38:38.513Z,19.62
2022-11-07T11:39:45.498Z,19.63
2022-11-07T11:40:50.384Z,19.69
2022-11-07T11:41:55.879Z,19.75
2022-11-07T11:43:05.450Z,19.87
2022-11-07T11:44:23.723Z,19.85
2022-11-07T11:45:26.854Z,19.65
2022-11-07T11:46:48.659Z,19.48
2022-11-07T11:48:14.567Z,19.26
2022-11-07T11:49:17.673Z,19.04
2022-11-07T11:50:36.898Z,18.78
2022-11-07T11:51:42.836Z,18.69
2022-11-07T11:52:46.637Z,18.65
2022-11-07T11:53:49.810Z,18.65
2022-11-07T11:54:54.042Z,18.80
2022-11-07T11:55:57.139Z,18.99
2022-11-07T11:57:23.239Z,19.19
2022-11-07T11:58:45.005Z,19.13
2022-11-07T11:59:48.060Z,18.98
2022-11-07T12:01:04.145Z,19.04
2022-11-07T12:02:22.371Z,19.08
2022-11-07T12:03:36.203Z,18.98
2022-11-07T12:05:08.356Z,18.64
2022-11-07T12:06:14.555Z,18.28
2022-11-07T12:07:36.379Z,18.21
2022-11-07T12:08:42.851Z,17.89
2022-11-07T12:09:48.698Z,17.86
2022-11-07T12:10:51.971Z,17.89
2022-11-07T12:12:04.140Z,17.87
2022-11-07T12:13:14.755Z,17.94
2022-11-07T12:14:37.270Z,17.89
2022-11-07T12:15:51.939Z,17.83
2022-11-07T12:16:59.188Z,17.79
2022-11-07T12:18:02.318Z,17.96
2022-11-07T12:19:27.188Z,17.74
2022-11-07T12:20:52.958Z,17.63
2022-11-07T12:21:58.894Z,17.63
2022-11-07T12:23:11.385Z,17.70
2022-11-07T12:24:33.170Z,17.79
2022-11-07T12:25:40.629Z,17.95
2022-11-07T12:26:48.820Z,18.15
2022-11-07T12:28:01.015Z,18.30
2022-11-07T12:29:23.963Z,18.45
2022-11-07T12:30:30.266Z,18.46
2022-11-07T12:31:44.061Z,18.50
2022-11-07T12:32:47.494Z,18.48
2022-11-07T12:34:03.233Z,18.49
2022-11-07T12:35:25.088Z,18.42
2022-11-07T12:36:39.792Z,18.37
2022-11-07T12:38:07.855Z,18.37
2022-11-07T12:39:32.380Z,18.38
2022-11-07T12:40:38.477Z,18.32
2022-11-07T12:41:56.811Z,18.19
2022-11-07T12:43:25.945Z,18.00
2022-11-07T12:44:31.856Z,17.85
2022-11-07T12:45:53.725Z,17.83
2022-11-07T12:46:56.960Z,17.72
2022-11-07T12:48:00.000Z,17.64
2022-11-07T12:49:03.194Z,17.60
2022-11-07T12:50:14.366Z,17.50
2022-11-07T12:51:36.768Z,17.31
2022-11-07T12:52:46.677Z,17.19
2022-11-07T12:54:16.196Z,17.03
2022-11-07T12:55:23.204Z,16.83
2022-11-07T12:56:34.966Z,16.56
2022-11-07T12:57:38.998Z,16.36
2022-11-07T12:58:43.587Z,16.22
2022-11-07T12:59:52.506Z,16.06
2022-11-07T13:00:56.524Z,15.90
2022-11-07T13:02:18.716Z,15.86
2022-11-07T13:03:27.947Z,15.77
2022-11-07T13:04:45.736Z,15.71
2022-11-07T13:05:48.817Z,15.62
2022-11-07T13:06:51.911Z,15.60
2022-11-07T13:08:00.163Z,15.52
2022-11-07T13:09:03.243Z,15.39
2022-11-07T13:10:25.736Z,15.34
2022-11-07T13:11:28.931Z,15.30
2022-11-07T13:12:40.560Z,15.29
2022-11-07T13:13:45.922Z,15.30
2022-11-07T13:14:49.491Z,15.28
2022-11-07T13:16:15.953Z,15.27
2022-11-07T13:17:30.726Z,15.21
2022-11-07T13:18:34.090Z,15.17
2022-11-07T13:20:05.683Z,15.11
2022-11-07T13:21:09.457Z,15.03
2022-11-07T13:22:31.035Z,14.92
2022-11-07T13:23:34.125Z,14.84
2022-11-07T13:24:38.571Z,14.88
2022-11-07T13:25:42.855Z,14.78
2022-11-07T13:26:48.389Z,14.65
2022-11-07T13:27:57.985Z,14.57
2022-11-07T13:29:02.397Z,14.48
2022-11-07T13:30:14.648Z,14.40
2022-11-07T13:31:34.891Z,14.34
2022-11-07T13:32:39.314Z,14.30
2022-11-07T13:33:42.485Z,14.22
2022-11-07T13:34:59.381Z,14.14
2022-11-07T13:36:14.144Z,14.11
2022-11-07T13:37:22.082Z,14.10
2022-11-07T13:38:26.299Z,14.03
2022-11-07T13:39:29.959Z,14.01
2022-11-07T13:40:42.288Z,13.99
2022-11-07T13:41:46.344Z,13.93
2022-11-07T13:42:54.675Z,13.92
2022-11-07T13:44:06.062Z,13.90
2022-11-07T13:45:27.147Z,13.83
2022-11-07T13:46:31.994Z,13.68
2022-11-07T13:47:39.533Z,13.63
2022-11-07T13:48:58.418Z,13.60
2022-11-07T13:50:08.676Z,13.53
2022-11-07T13:51:17.998Z,13.51
2022-11-07T13:52:33.966Z,13.49
2022-11-07T13:53:48.453Z,13.50
2022-11-07T13:55:11.908Z,13.39
2022-11-07T13:56:36.754Z,13.29
2022-11-07T13:57:44.333Z,13.23
2022-11-07T13:58:49.840Z,13.21
2022-11-07T13:59:55.721Z,13.20
2022-11-07T14:01:09.996Z,13.16
2022-11-07T14:02:25.429Z,13.08
2022-11-07T14:03:29.562Z,13.03
2022-11-07T14:04:40.473Z,13.00
2022-11-07T14:05:53.397Z,12.91
2022-11-07T14:06:59.124Z,12.82
2022-11-07T14:08:02.235Z,12.75
2022-11-07T14:09:05.541Z,12.69
2022-11-07T14:10:19.700Z,12.65
2022-11-07T14:11:23.658Z,12.65
2022-11-07T14:12:27.250Z,12.59
2022-11-07T14:13:36.955Z,12.53
2022-11-07T14:14:43.228Z,12.51
2022-11-07T14:15:56.713Z,12.48
2022-11-07T14:17:01.187Z,12.45
2022-11-07T14:18:04.756Z,12.42
2022-11-07T14:19:14.038Z,12.40
2022-11-07T14:20:19.895Z,12.38
2022-11-07T14:21:26.056Z,12.37
2022-11-07T14:22:31.670Z,12.36
2022-11-07T14:23:34.839Z,12.32
2022-11-07T14:24:50.353Z,12.25
2022-11-07T14:25:58.188Z,12.21
2022-11-07T14:27:03.450Z,12.19
2022-11-07T14:28:07.722Z,12.17
2022-11-07T14:29:20.884Z,12.15
2022-11-07T14:30:24.883Z,12.11
2022-11-07T14:31:32.986Z,12.07
2022-11-07T14:32:39.592Z,12.04
2022-11-07T14:33:48.331Z,12.00